首页
METAR-TAF:

METAR-TAF

机场 :

贝尔格莱德, 塞尔维亚

貝爾格勒尼古拉·特斯拉機場

纬度: 44-49N, 经度: 020-17E, 海拔: 96米

当前天气观测

该预报发布于21分钟前的22:00 UTC
风速4节,风向
温度 21°C
湿度 56%
气压 1013 hPa
能见度10公里或以上
1500米以下无云,无积雨云

METAR: LYBE 252200Z 17004KT CAVOK 21/12 Q1013 NOSIG

时间: 00:21 (22:21 UTC)

预报

该预报发布于5小时和21分钟前的17:00 UTC
预报有效从25日的 18点(UTC)到 26日的 18点(UTC)
风速5节,风向西转西南
能见度10公里或以上
1500米以下无云,无积雨云
成为
从 26日的 16点(UTC)到 26日的 18点(UTC)
风速12节,风向北转西北

TAF: LYBE 251700Z 2518/2618 24005KT CAVOK TX29/2613Z TN13/2604Z BECMG 2616/2618 34012KT

超过4000个机场的气象观测和天气预报(METAR&TAF报告)。

可查询的气象台以黄色和红色小点在地图上表示。

将鼠标移到小点上方,可查看气象台名称。

然后点击查看天气观测和预报。

如需切换地图:点击带黑十字的绿色按钮放大地图;点击带横线的绿色按钮缩小地图;或者点击绿色箭头查看邻近地区的地图。


METAR-TAF: